Springdale, Montana
Current Conditions -  °F | °C
As of 5:53 PM on Monday 26 Jan 2015 (Local Time) from KLVM Reporting Station
Clear Clear  
Wind Chill: 56°   Ceiling: Unl
Heat Index: 56°   Visibility: 10mi
Dew Point: 27°   Wind: 17mph
Humidity: 33%   Direction: 260°W
Pressure: 30.05"   Gusts: 28mph
Location:  45.74°N, 110.22°W
Report Text: KLVM 270053Z AUTO 26015G24KT 10SM CLR 13/M03 A3005 RMK AO2 PK WND 26032/0042 SLP156 T01331028
Loading
Personal Weather Stations






























Interactive Weather Map New forecast layout! Learn more

10-Day Weather Forecast

Advertisements
Track Severe Weather on mobile